Aeroporto :







RITROVATECI SU...

 
LOGIN :

Iscrizione | Disclaimer

   EN    FR    IT 

 









Sommario :    VFR   VFR Marginale   IFR   IFR Intensivo   IFR Molto Intensivo
Visibilità : 
Base nubi : 
>= 8 km
>= 3000ft
5 / 8 km
1000 / 3000 ft
1500m / 5 km
500 / 1000 ft
800 / 1500m
200 / 500 ft
< 800m
< 200 ft
Simboli :   Temporali  Nebbia  Neve Forte  Precipitazioni Forti  Vento > 20 kt






- Altitudine del aeroporto : 266 ft
- Codice IATA : MHT


KMHT - Manchester

ULTIMO METAR :
  • 171253Z 22004KT 10SM FEW200 M01/M05 A3016 RMK AO2 SLP230 T10111050

METARs OBSOLETI :
  • 171153Z 00000KT 10SM FEW200 M03/M07 A3011 RMK AO2 SLP215 4/002 T10331067 11011 21033 51018
  • 171053Z 20004KT 10SM FEW200 M02/M06 A3009 RMK AO2 SLP208 T10171056

TAF KMHT
Valido dal 17 a 12 ore il 18 a 12 ore UTC


171132Z 1712/1812 VRB03KT P6SM FEW150
FM171400 30005KT P6SM SKC
FM171800 31008G15KT P6SM FEW040
FM172300 VRB03KT P6SM FEW150



MetMap, La meteo Aeronautica in un colpo d'occhio ! - Copyright ORBIFLY Dicembre 2007 - Disclaimer

ORBIFLY MET'MAP TEAM :

Programmazione e sviluppo : Alexandra Zaïnal
Concezione : Baudouin d'Aumeries
Aiuto per la programmazione : Marc-Olivier Méhu
Supporto tecnico e logistico : Manuel Goepfert
Aiuto per la traduzione : Arnaldo La Scala

Contatto : metmap@orbifly.com




FONTI E CREDITI :

   NOAA